sensor_id;sensor_type;location;lat;lon;timestamp;temperature;humidity
13052;DHT22;6592;47.484;9.726;2022-07-15T00:00:28;24.40;82.00
13052;DHT22;6592;47.484;9.726;2022-07-15T00:02:56;24.40;82.20
13052;DHT22;6592;47.484;9.726;2022-07-15T00:05:26;24.40;82.40
13052;DHT22;6592;47.484;9.726;2022-07-15T00:07:54;24.30;82.50
13052;DHT22;6592;47.484;9.726;2022-07-15T00:10:25;24.20;83.10
13052;DHT22;6592;47.484;9.726;2022-07-15T00:12:54;24.30;82.70
13052;DHT22;6592;47.484;9.726;2022-07-15T00:15:23;24.30;82.70
13052;DHT22;6592;47.484;9.726;2022-07-15T00:17:52;24.30;82.60
13052;DHT22;6592;47.484;9.726;2022-07-15T00:20:20;24.40;83.20
13052;DHT22;6592;47.484;9.726;2022-07-15T00:22:50;24.30;82.70
13052;DHT22;6592;47.484;9.726;2022-07-15T00:25:18;24.30;83.00
13052;DHT22;6592;47.484;9.726;2022-07-15T00:27:53;24.30;83.00
13052;DHT22;6592;47.484;9.726;2022-07-15T00:30:22;24.20;82.80
13052;DHT22;6592;47.484;9.726;2022-07-15T00:32:51;24.20;82.90
13052;DHT22;6592;47.484;9.726;2022-07-15T00:35:19;24.10;82.90
13052;DHT22;6592;47.484;9.726;2022-07-15T00:37:47;24.10;84.00
13052;DHT22;6592;47.484;9.726;2022-07-15T00:40:17;24.10;83.80
13052;DHT22;6592;47.484;9.726;2022-07-15T00:42:45;24.00;84.40
13052;DHT22;6592;47.484;9.726;2022-07-15T00:45:14;24.00;83.80
13052;DHT22;6592;47.484;9.726;2022-07-15T00:47:43;24.00;84.90
13052;DHT22;6592;47.484;9.726;2022-07-15T00:50:12;23.90;85.60
13052;DHT22;6592;47.484;9.726;2022-07-15T00:52:41;23.90;86.50
13052;DHT22;6592;47.484;9.726;2022-07-15T00:55:11;23.80;88.30
13052;DHT22;6592;47.484;9.726;2022-07-15T00:57:42;23.70;89.10
13052;DHT22;6592;47.484;9.726;2022-07-15T01:00:10;23.60;88.60
13052;DHT22;6592;47.484;9.726;2022-07-15T01:02:40;23.60;87.80
13052;DHT22;6592;47.484;9.726;2022-07-15T01:05:09;23.50;87.50
13052;DHT22;6592;47.484;9.726;2022-07-15T01:07:38;23.50;89.30
13052;DHT22;6592;47.484;9.726;2022-07-15T01:10:06;23.40;89.90
13052;DHT22;6592;47.484;9.726;2022-07-15T01:12:35;23.30;89.00
13052;DHT22;6592;47.484;9.726;2022-07-15T01:15:06;23.30;89.00
13052;DHT22;6592;47.484;9.726;2022-07-15T01:17:34;23.30;88.90
13052;DHT22;6592;47.484;9.726;2022-07-15T01:20:05;23.30;89.60
13052;DHT22;6592;47.484;9.726;2022-07-15T01:22:35;23.00;89.70
13052;DHT22;6592;47.484;9.726;2022-07-15T01:25:03;23.10;90.10
13052;DHT22;6592;47.484;9.726;2022-07-15T01:27:31;23.10;90.30
13052;DHT22;6592;47.484;9.726;2022-07-15T01:30:01;23.00;89.80
13052;DHT22;6592;47.484;9.726;2022-07-15T01:32:29;23.00;89.10
13052;DHT22;6592;47.484;9.726;2022-07-15T01:34:57;22.90;89.70
13052;DHT22;6592;47.484;9.726;2022-07-15T01:37:25;22.80;89.90
13052;DHT22;6592;47.484;9.726;2022-07-15T01:39:54;22.70;90.40
13052;DHT22;6592;47.484;9.726;2022-07-15T01:42:23;22.60;91.00
13052;DHT22;6592;47.484;9.726;2022-07-15T01:44:51;22.40;91.40
13052;DHT22;6592;47.484;9.726;2022-07-15T01:47:19;22.40;91.00
13052;DHT22;6592;47.484;9.726;2022-07-15T01:49:47;22.40;91.20
13052;DHT22;6592;47.484;9.726;2022-07-15T01:52:15;22.40;90.90
13052;DHT22;6592;47.484;9.726;2022-07-15T01:54:44;22.30;91.60
13052;DHT22;6592;47.484;9.726;2022-07-15T01:57:13;22.20;91.80
13052;DHT22;6592;47.484;9.726;2022-07-15T01:59:41;22.10;91.50
13052;DHT22;6592;47.484;9.726;2022-07-15T02:02:10;22.10;91.60
13052;DHT22;6592;47.484;9.726;2022-07-15T02:04:38;22.00;91.80
13052;DHT22;6592;47.484;9.726;2022-07-15T02:07:06;22.00;92.30
13052;DHT22;6592;47.484;9.726;2022-07-15T02:09:35;22.00;92.30
13052;DHT22;6592;47.484;9.726;2022-07-15T02:12:03;22.00;92.40
13052;DHT22;6592;47.484;9.726;2022-07-15T02:14:33;22.00;92.40
13052;DHT22;6592;47.484;9.726;2022-07-15T02:17:02;21.90;91.20
13052;DHT22;6592;47.484;9.726;2022-07-15T02:19:30;22.00;92.30
13052;DHT22;6592;47.484;9.726;2022-07-15T02:21:58;21.90;92.60
13052;DHT22;6592;47.484;9.726;2022-07-15T02:24:26;21.70;92.60
13052;DHT22;6592;47.484;9.726;2022-07-15T02:26:55;21.80;92.90
13052;DHT22;6592;47.484;9.726;2022-07-15T02:29:23;21.60;93.40
13052;DHT22;6592;47.484;9.726;2022-07-15T02:31:52;21.70;93.80
13052;DHT22;6592;47.484;9.726;2022-07-15T02:34:20;21.60;93.70
13052;DHT22;6592;47.484;9.726;2022-07-15T02:36:48;21.60;93.40
13052;DHT22;6592;47.484;9.726;2022-07-15T02:39:16;21.70;93.60
13052;DHT22;6592;47.484;9.726;2022-07-15T02:41:44;21.60;93.00
13052;DHT22;6592;47.484;9.726;2022-07-15T02:44:12;21.60;92.90
13052;DHT22;6592;47.484;9.726;2022-07-15T02:46:41;21.50;93.60
13052;DHT22;6592;47.484;9.726;2022-07-15T02:49:11;21.50;93.60
13052;DHT22;6592;47.484;9.726;2022-07-15T02:51:39;21.50;93.80
13052;DHT22;6592;47.484;9.726;2022-07-15T02:54:07;21.50;94.30
13052;DHT22;6592;47.484;9.726;2022-07-15T02:56:35;21.50;94.00
13052;DHT22;6592;47.484;9.726;2022-07-15T02:59:03;21.50;94.50
13052;DHT22;6592;47.484;9.726;2022-07-15T03:01:31;21.40;94.40
13052;DHT22;6592;47.484;9.726;2022-07-15T03:04:00;21.40;94.60
13052;DHT22;6592;47.484;9.726;2022-07-15T03:06:29;21.40;94.60
13052;DHT22;6592;47.484;9.726;2022-07-15T03:08:57;21.30;94.70
13052;DHT22;6592;47.484;9.726;2022-07-15T03:11:26;21.30;95.00
13052;DHT22;6592;47.484;9.726;2022-07-15T03:13:54;21.30;95.00
13052;DHT22;6592;47.484;9.726;2022-07-15T03:16:22;21.30;95.20
13052;DHT22;6592;47.484;9.726;2022-07-15T03:18:50;21.20;95.30
13052;DHT22;6592;47.484;9.726;2022-07-15T03:21:18;21.30;95.60
13052;DHT22;6592;47.484;9.726;2022-07-15T03:23:49;21.20;95.70
13052;DHT22;6592;47.484;9.726;2022-07-15T03:26:18;21.30;95.80
13052;DHT22;6592;47.484;9.726;2022-07-15T03:28:46;21.30;95.90
13052;DHT22;6592;47.484;9.726;2022-07-15T03:31:14;21.30;96.30
13052;DHT22;6592;47.484;9.726;2022-07-15T03:33:43;21.30;96.40
13052;DHT22;6592;47.484;9.726;2022-07-15T03:36:19;21.30;96.10
13052;DHT22;6592;47.484;9.726;2022-07-15T03:38:47;21.30;96.00
13052;DHT22;6592;47.484;9.726;2022-07-15T03:41:17;21.30;95.80
13052;DHT22;6592;47.484;9.726;2022-07-15T03:43:45;21.00;95.50
13052;DHT22;6592;47.484;9.726;2022-07-15T03:46:13;21.20;95.90
13052;DHT22;6592;47.484;9.726;2022-07-15T03:48:42;21.10;96.40
13052;DHT22;6592;47.484;9.726;2022-07-15T03:51:10;21.10;96.60
13052;DHT22;6592;47.484;9.726;2022-07-15T03:53:38;21.10;96.50
13052;DHT22;6592;47.484;9.726;2022-07-15T03:56:06;21.10;96.40
13052;DHT22;6592;47.484;9.726;2022-07-15T03:58:36;21.10;96.20
13052;DHT22;6592;47.484;9.726;2022-07-15T04:01:04;21.00;96.60
13052;DHT22;6592;47.484;9.726;2022-07-15T04:03:32;21.00;96.60
13052;DHT22;6592;47.484;9.726;2022-07-15T04:06:00;21.10;96.80
13052;DHT22;6592;47.484;9.726;2022-07-15T04:08:29;21.00;96.90
13052;DHT22;6592;47.484;9.726;2022-07-15T04:10:57;20.90;96.40
13052;DHT22;6592;47.484;9.726;2022-07-15T04:13:25;20.90;96.80
13052;DHT22;6592;47.484;9.726;2022-07-15T04:15:54;20.90;95.70
13052;DHT22;6592;47.484;9.726;2022-07-15T04:18:22;20.80;95.20
13052;DHT22;6592;47.484;9.726;2022-07-15T04:20:54;20.80;96.00
13052;DHT22;6592;47.484;9.726;2022-07-15T04:23:22;20.90;98.00
13052;DHT22;6592;47.484;9.726;2022-07-15T04:25:52;20.80;98.90
13052;DHT22;6592;47.484;9.726;2022-07-15T04:28:20;20.80;98.30
13052;DHT22;6592;47.484;9.726;2022-07-15T04:30:48;20.90;98.90
13052;DHT22;6592;47.484;9.726;2022-07-15T04:33:19;20.90;98.70
13052;DHT22;6592;47.484;9.726;2022-07-15T04:35:47;20.90;98.60
13052;DHT22;6592;47.484;9.726;2022-07-15T04:38:16;20.90;98.50
13052;DHT22;6592;47.484;9.726;2022-07-15T04:40:44;21.00;98.60
13052;DHT22;6592;47.484;9.726;2022-07-15T04:43:12;21.00;98.20
13052;DHT22;6592;47.484;9.726;2022-07-15T04:45:40;21.10;98.20
13052;DHT22;6592;47.484;9.726;2022-07-15T04:48:08;21.20;97.80
13052;DHT22;6592;47.484;9.726;2022-07-15T04:50:52;21.30;97.40
13052;DHT22;6592;47.484;9.726;2022-07-15T04:53:20;21.30;97.60
13052;DHT22;6592;47.484;9.726;2022-07-15T04:55:48;21.30;98.10
13052;DHT22;6592;47.484;9.726;2022-07-15T04:58:16;21.50;97.80
13052;DHT22;6592;47.484;9.726;2022-07-15T05:00:44;21.60;97.30
13052;DHT22;6592;47.484;9.726;2022-07-15T05:03:13;21.60;97.50
13052;DHT22;6592;47.484;9.726;2022-07-15T05:05:42;21.60;97.30
13052;DHT22;6592;47.484;9.726;2022-07-15T05:08:11;21.70;96.90
13052;DHT22;6592;47.484;9.726;2022-07-15T05:10:40;21.80;96.20
13052;DHT22;6592;47.484;9.726;2022-07-15T05:13:08;21.80;96.00
13052;DHT22;6592;47.484;9.726;2022-07-15T05:15:36;21.90;95.50
13052;DHT22;6592;47.484;9.726;2022-07-15T05:18:04;21.90;95.70
13052;DHT22;6592;47.484;9.726;2022-07-15T05:20:32;22.00;95.30
13052;DHT22;6592;47.484;9.726;2022-07-15T05:23:00;21.90;94.80
13052;DHT22;6592;47.484;9.726;2022-07-15T05:25:30;21.90;95.10
13052;DHT22;6592;47.484;9.726;2022-07-15T05:27:58;22.00;94.40
13052;DHT22;6592;47.484;9.726;2022-07-15T05:30:26;22.10;93.80
13052;DHT22;6592;47.484;9.726;2022-07-15T05:32:54;22.20;94.10
13052;DHT22;6592;47.484;9.726;2022-07-15T05:35:22;22.20;93.90
13052;DHT22;6592;47.484;9.726;2022-07-15T05:37:50;22.30;93.40
13052;DHT22;6592;47.484;9.726;2022-07-15T05:40:18;22.50;93.90
13052;DHT22;6592;47.484;9.726;2022-07-15T05:42:48;22.60;94.00
13052;DHT22;6592;47.484;9.726;2022-07-15T05:45:16;22.80;93.60
13052;DHT22;6592;47.484;9.726;2022-07-15T05:47:47;22.90;93.40
13052;DHT22;6592;47.484;9.726;2022-07-15T05:50:16;22.90;93.20
13052;DHT22;6592;47.484;9.726;2022-07-15T05:52:44;22.90;92.70
13052;DHT22;6592;47.484;9.726;2022-07-15T05:55:12;22.90;91.10
13052;DHT22;6592;47.484;9.726;2022-07-15T05:57:40;23.00;90.80
13052;DHT22;6592;47.484;9.726;2022-07-15T06:00:13;22.90;90.30
13052;DHT22;6592;47.484;9.726;2022-07-15T06:02:42;23.10;90.80
13052;DHT22;6592;47.484;9.726;2022-07-15T06:05:10;23.20;90.60
13052;DHT22;6592;47.484;9.726;2022-07-15T06:07:38;23.20;90.00
13052;DHT22;6592;47.484;9.726;2022-07-15T06:10:07;23.30;90.30
13052;DHT22;6592;47.484;9.726;2022-07-15T06:12:35;23.30;90.10
13052;DHT22;6592;47.484;9.726;2022-07-15T06:15:03;23.50;90.00
13052;DHT22;6592;47.484;9.726;2022-07-15T06:17:33;23.60;89.30
13052;DHT22;6592;47.484;9.726;2022-07-15T06:20:02;23.80;89.20
13052;DHT22;6592;47.484;9.726;2022-07-15T06:22:37;23.90;89.60
13052;DHT22;6592;47.484;9.726;2022-07-15T06:25:05;24.10;89.60
13052;DHT22;6592;47.484;9.726;2022-07-15T06:27:34;24.20;88.70
13052;DHT22;6592;47.484;9.726;2022-07-15T06:30:02;24.50;87.70
13052;DHT22;6592;47.484;9.726;2022-07-15T06:32:30;24.70;87.70
13052;DHT22;6592;47.484;9.726;2022-07-15T06:35:00;24.90;86.80
13052;DHT22;6592;47.484;9.726;2022-07-15T06:37:28;25.00;85.50
13052;DHT22;6592;47.484;9.726;2022-07-15T06:39:56;25.00;85.00
13052;DHT22;6592;47.484;9.726;2022-07-15T06:42:24;25.10;84.40
13052;DHT22;6592;47.484;9.726;2022-07-15T06:44:52;25.30;83.60
13052;DHT22;6592;47.484;9.726;2022-07-15T06:47:20;25.60;83.70
13052;DHT22;6592;47.484;9.726;2022-07-15T06:49:48;25.90;84.40
13052;DHT22;6592;47.484;9.726;2022-07-15T06:52:19;26.20;85.30
13052;DHT22;6592;47.484;9.726;2022-07-15T06:54:47;26.60;84.40
13052;DHT22;6592;47.484;9.726;2022-07-15T06:57:15;26.80;83.00
13052;DHT22;6592;47.484;9.726;2022-07-15T06:59:46;26.80;82.30
13052;DHT22;6592;47.484;9.726;2022-07-15T07:02:14;26.90;81.90
13052;DHT22;6592;47.484;9.726;2022-07-15T07:05:30;27.20;81.40
13052;DHT22;6592;47.484;9.726;2022-07-15T07:07:58;27.60;79.10
13052;DHT22;6592;47.484;9.726;2022-07-15T07:10:26;27.70;76.90
13052;DHT22;6592;47.484;9.726;2022-07-15T07:12:54;27.90;77.60
13052;DHT22;6592;47.484;9.726;2022-07-15T07:15:22;28.40;79.10
13052;DHT22;6592;47.484;9.726;2022-07-15T07:17:51;29.10;76.20
13052;DHT22;6592;47.484;9.726;2022-07-15T07:20:19;29.80;74.40
13052;DHT22;6592;47.484;9.726;2022-07-15T07:22:49;30.30;68.60
13052;DHT22;6592;47.484;9.726;2022-07-15T07:25:17;30.70;67.50
13052;DHT22;6592;47.484;9.726;2022-07-15T07:27:45;31.00;67.10
13052;DHT22;6592;47.484;9.726;2022-07-15T07:30:13;31.00;65.40
13052;DHT22;6592;47.484;9.726;2022-07-15T07:32:42;31.10;66.00
13052;DHT22;6592;47.484;9.726;2022-07-15T07:35:10;31.40;64.10
13052;DHT22;6592;47.484;9.726;2022-07-15T07:37:38;31.40;63.80
13052;DHT22;6592;47.484;9.726;2022-07-15T07:40:08;32.00;64.00
13052;DHT22;6592;47.484;9.726;2022-07-15T07:42:37;32.10;60.60
13052;DHT22;6592;47.484;9.726;2022-07-15T07:45:07;32.40;60.80
13052;DHT22;6592;47.484;9.726;2022-07-15T07:47:35;32.50;60.00
13052;DHT22;6592;47.484;9.726;2022-07-15T07:50:07;32.70;59.10
13052;DHT22;6592;47.484;9.726;2022-07-15T07:52:35;32.90;59.00
13052;DHT22;6592;47.484;9.726;2022-07-15T07:55:04;32.90;58.60
13052;DHT22;6592;47.484;9.726;2022-07-15T07:57:33;32.90;58.70
13052;DHT22;6592;47.484;9.726;2022-07-15T08:00:02;33.30;58.20
13052;DHT22;6592;47.484;9.726;2022-07-15T08:02:30;33.50;57.90
13052;DHT22;6592;47.484;9.726;2022-07-15T08:04:58;33.70;57.90
13052;DHT22;6592;47.484;9.726;2022-07-15T08:07:26;34.30;57.00
13052;DHT22;6592;47.484;9.726;2022-07-15T08:09:55;34.60;55.90
13052;DHT22;6592;47.484;9.726;2022-07-15T08:12:24;34.50;55.00
13052;DHT22;6592;47.484;9.726;2022-07-15T08:14:53;35.10;54.70
13052;DHT22;6592;47.484;9.726;2022-07-15T08:17:21;35.50;52.70
13052;DHT22;6592;47.484;9.726;2022-07-15T08:19:50;35.60;54.20
13052;DHT22;6592;47.484;9.726;2022-07-15T08:22:18;36.30;55.30
13052;DHT22;6592;47.484;9.726;2022-07-15T08:24:46;36.70;52.70
13052;DHT22;6592;47.484;9.726;2022-07-15T08:27:16;37.10;52.00
13052;DHT22;6592;47.484;9.726;2022-07-15T08:29:44;37.90;51.70
13052;DHT22;6592;47.484;9.726;2022-07-15T08:32:14;38.50;51.50
13052;DHT22;6592;47.484;9.726;2022-07-15T08:34:42;38.20;50.60
13052;DHT22;6592;47.484;9.726;2022-07-15T08:37:10;38.10;50.40
13052;DHT22;6592;47.484;9.726;2022-07-15T08:39:38;38.30;49.40
13052;DHT22;6592;47.484;9.726;2022-07-15T08:42:06;38.60;49.40
13052;DHT22;6592;47.484;9.726;2022-07-15T08:44:35;38.70;49.30
13052;DHT22;6592;47.484;9.726;2022-07-15T08:47:04;38.50;47.90
13052;DHT22;6592;47.484;9.726;2022-07-15T08:49:50;38.40;48.20
13052;DHT22;6592;47.484;9.726;2022-07-15T08:52:21;37.70;48.30
13052;DHT22;6592;47.484;9.726;2022-07-15T08:54:49;36.80;49.10
13052;DHT22;6592;47.484;9.726;2022-07-15T08:57:18;36.40;49.80
13052;DHT22;6592;47.484;9.726;2022-07-15T08:59:46;36.50;50.20
13052;DHT22;6592;47.484;9.726;2022-07-15T09:02:14;36.90;49.00
13052;DHT22;6592;47.484;9.726;2022-07-15T09:07:38;36.70;49.40
13052;DHT22;6592;47.484;9.726;2022-07-15T09:10:17;36.30;49.30
13052;DHT22;6592;47.484;9.726;2022-07-15T09:12:48;36.10;50.10
13052;DHT22;6592;47.484;9.726;2022-07-15T09:15:31;35.60;49.90
13052;DHT22;6592;47.484;9.726;2022-07-15T09:18:07;35.20;50.40
13052;DHT22;6592;47.484;9.726;2022-07-15T09:20:35;34.80;50.90
13052;DHT22;6592;47.484;9.726;2022-07-15T09:23:05;34.50;50.90
13052;DHT22;6592;47.484;9.726;2022-07-15T09:25:33;33.90;52.00
13052;DHT22;6592;47.484;9.726;2022-07-15T09:28:02;33.60;52.40
13052;DHT22;6592;47.484;9.726;2022-07-15T09:30:32;33.00;54.00
13052;DHT22;6592;47.484;9.726;2022-07-15T09:33:19;33.00;53.90
13052;DHT22;6592;47.484;9.726;2022-07-15T09:36:04;33.50;54.30
13052;DHT22;6592;47.484;9.726;2022-07-15T09:38:36;33.80;54.80
13052;DHT22;6592;47.484;9.726;2022-07-15T09:41:07;34.30;53.50
13052;DHT22;6592;47.484;9.726;2022-07-15T09:43:42;34.90;53.20
13052;DHT22;6592;47.484;9.726;2022-07-15T09:46:11;35.60;52.20
13052;DHT22;6592;47.484;9.726;2022-07-15T09:48:39;35.90;51.30
13052;DHT22;6592;47.484;9.726;2022-07-15T09:51:07;36.30;50.50
13052;DHT22;6592;47.484;9.726;2022-07-15T09:53:37;36.20;51.40
13052;DHT22;6592;47.484;9.726;2022-07-15T09:56:07;35.80;50.70
13052;DHT22;6592;47.484;9.726;2022-07-15T09:58:37;35.80;51.10
13052;DHT22;6592;47.484;9.726;2022-07-15T10:01:06;35.60;50.50
13052;DHT22;6592;47.484;9.726;2022-07-15T10:03:35;35.90;51.90
13052;DHT22;6592;47.484;9.726;2022-07-15T10:06:04;36.20;50.50
13052;DHT22;6592;47.484;9.726;2022-07-15T10:08:33;36.70;50.10
13052;DHT22;6592;47.484;9.726;2022-07-15T10:11:06;37.10;49.70
13052;DHT22;6592;47.484;9.726;2022-07-15T10:13:57;37.90;51.40
13052;DHT22;6592;47.484;9.726;2022-07-15T10:19:19;38.70;48.00
13052;DHT22;6592;47.484;9.726;2022-07-15T10:21:53;39.10;48.20
13052;DHT22;6592;47.484;9.726;2022-07-15T10:24:26;39.30;49.00
13052;DHT22;6592;47.484;9.726;2022-07-15T10:27:08;39.00;47.00
13052;DHT22;6592;47.484;9.726;2022-07-15T10:29:38;39.20;48.80
13052;DHT22;6592;47.484;9.726;2022-07-15T10:32:06;39.40;47.90
13052;DHT22;6592;47.484;9.726;2022-07-15T10:34:42;39.30;48.00
13052;DHT22;6592;47.484;9.726;2022-07-15T10:37:11;39.50;47.70
13052;DHT22;6592;47.484;9.726;2022-07-15T10:39:49;39.50;47.40
13052;DHT22;6592;47.484;9.726;2022-07-15T10:42:19;39.80;47.10
13052;DHT22;6592;47.484;9.726;2022-07-15T10:44:48;40.10;48.60
13052;DHT22;6592;47.484;9.726;2022-07-15T10:47:17;40.10;46.40
13052;DHT22;6592;47.484;9.726;2022-07-15T10:49:46;40.50;47.60
13052;DHT22;6592;47.484;9.726;2022-07-15T10:52:15;40.50;48.00
13052;DHT22;6592;47.484;9.726;2022-07-15T10:54:47;40.50;47.90
13052;DHT22;6592;47.484;9.726;2022-07-15T10:57:16;40.50;47.30
13052;DHT22;6592;47.484;9.726;2022-07-15T13:44:53;32.00;53.80
13052;DHT22;6592;47.484;9.726;2022-07-15T13:47:23;31.90;54.10
13052;DHT22;6592;47.484;9.726;2022-07-15T13:49:51;31.90;54.30
13052;DHT22;6592;47.484;9.726;2022-07-15T13:52:40;32.00;53.80
13052;DHT22;6592;47.484;9.726;2022-07-15T13:55:09;32.10;55.20
13052;DHT22;6592;47.484;9.726;2022-07-15T13:57:38;31.90;55.00
13052;DHT22;6592;47.484;9.726;2022-07-15T14:00:09;32.00;55.00
13052;DHT22;6592;47.484;9.726;2022-07-15T14:02:38;31.90;55.10
13052;DHT22;6592;47.484;9.726;2022-07-15T14:05:07;31.90;55.10
13052;DHT22;6592;47.484;9.726;2022-07-15T14:07:36;31.90;55.10
13052;DHT22;6592;47.484;9.726;2022-07-15T14:10:04;32.00;54.80
13052;DHT22;6592;47.484;9.726;2022-07-15T14:12:32;31.90;54.70
13052;DHT22;6592;47.484;9.726;2022-07-15T14:15:01;32.00;53.80
13052;DHT22;6592;47.484;9.726;2022-07-15T14:17:31;32.10;54.00
13052;DHT22;6592;47.484;9.726;2022-07-15T14:19:59;32.10;54.10
13052;DHT22;6592;47.484;9.726;2022-07-15T14:22:27;32.10;54.20
13052;DHT22;6592;47.484;9.726;2022-07-15T14:24:57;32.00;54.70
13052;DHT22;6592;47.484;9.726;2022-07-15T14:27:26;32.00;54.60
13052;DHT22;6592;47.484;9.726;2022-07-15T14:29:55;32.00;54.60
13052;DHT22;6592;47.484;9.726;2022-07-15T14:32:28;32.00;53.50
13052;DHT22;6592;47.484;9.726;2022-07-15T14:35:01;32.00;52.50
13052;DHT22;6592;47.484;9.726;2022-07-15T14:37:29;31.70;50.90
13052;DHT22;6592;47.484;9.726;2022-07-15T14:40:00;31.70;51.40
13052;DHT22;6592;47.484;9.726;2022-07-15T14:42:29;31.60;50.40
13052;DHT22;6592;47.484;9.726;2022-07-15T14:44:57;31.60;49.70
13052;DHT22;6592;47.484;9.726;2022-07-15T14:47:26;31.80;50.60
13052;DHT22;6592;47.484;9.726;2022-07-15T14:49:54;31.80;49.00
13052;DHT22;6592;47.484;9.726;2022-07-15T14:52:23;31.70;48.60
13052;DHT22;6592;47.484;9.726;2022-07-15T14:54:51;31.70;47.80
13052;DHT22;6592;47.484;9.726;2022-07-15T14:57:19;31.70;47.60
13052;DHT22;6592;47.484;9.726;2022-07-15T14:59:48;31.70;48.90
13052;DHT22;6592;47.484;9.726;2022-07-15T15:02:16;31.70;48.60
13052;DHT22;6592;47.484;9.726;2022-07-15T15:04:45;31.70;49.00
13052;DHT22;6592;47.484;9.726;2022-07-15T15:07:13;31.60;47.90
13052;DHT22;6592;47.484;9.726;2022-07-15T15:09:43;31.40;48.00
13052;DHT22;6592;47.484;9.726;2022-07-15T15:12:11;31.50;48.90
13052;DHT22;6592;47.484;9.726;2022-07-15T15:14:39;31.40;49.10
13052;DHT22;6592;47.484;9.726;2022-07-15T15:17:07;31.30;49.30
13052;DHT22;6592;47.484;9.726;2022-07-15T15:19:36;31.30;48.60
13052;DHT22;6592;47.484;9.726;2022-07-15T15:22:05;31.20;48.90
13052;DHT22;6592;47.484;9.726;2022-07-15T15:24:33;31.20;48.40
13052;DHT22;6592;47.484;9.726;2022-07-15T15:27:03;31.10;47.90
13052;DHT22;6592;47.484;9.726;2022-07-15T15:29:33;31.10;49.10
13052;DHT22;6592;47.484;9.726;2022-07-15T15:32:01;31.10;48.80
13052;DHT22;6592;47.484;9.726;2022-07-15T15:34:30;31.10;49.40
13052;DHT22;6592;47.484;9.726;2022-07-15T15:36:58;31.10;49.50
13052;DHT22;6592;47.484;9.726;2022-07-15T15:39:26;31.20;50.20
13052;DHT22;6592;47.484;9.726;2022-07-15T15:41:54;31.10;49.50
13052;DHT22;6592;47.484;9.726;2022-07-15T15:44:23;31.10;51.20
13052;DHT22;6592;47.484;9.726;2022-07-15T15:46:51;31.20;50.50
13052;DHT22;6592;47.484;9.726;2022-07-15T15:49:19;31.30;49.70
13052;DHT22;6592;47.484;9.726;2022-07-15T15:51:47;31.20;48.40
13052;DHT22;6592;47.484;9.726;2022-07-15T15:54:16;31.20;49.20
13052;DHT22;6592;47.484;9.726;2022-07-15T15:56:47;31.20;49.50
13052;DHT22;6592;47.484;9.726;2022-07-15T15:59:15;31.30;50.50
13052;DHT22;6592;47.484;9.726;2022-07-15T16:01:45;31.20;51.70
13052;DHT22;6592;47.484;9.726;2022-07-15T16:04:13;31.30;50.50
13052;DHT22;6592;47.484;9.726;2022-07-15T16:06:41;31.30;50.80
13052;DHT22;6592;47.484;9.726;2022-07-15T16:09:09;31.30;48.90
13052;DHT22;6592;47.484;9.726;2022-07-15T16:11:37;31.30;49.70
13052;DHT22;6592;47.484;9.726;2022-07-15T16:14:05;31.40;50.30
13052;DHT22;6592;47.484;9.726;2022-07-15T16:16:34;31.50;50.20
13052;DHT22;6592;47.484;9.726;2022-07-15T16:19:04;31.50;51.60
13052;DHT22;6592;47.484;9.726;2022-07-15T16:21:32;31.50;49.70
13052;DHT22;6592;47.484;9.726;2022-07-15T16:24:17;31.60;51.10
13052;DHT22;6592;47.484;9.726;2022-07-15T16:27:03;31.60;50.50
13052;DHT22;6592;47.484;9.726;2022-07-15T16:29:32;31.50;51.10
13052;DHT22;6592;47.484;9.726;2022-07-15T16:32:00;31.40;49.90
13052;DHT22;6592;47.484;9.726;2022-07-15T16:34:29;31.40;50.40
13052;DHT22;6592;47.484;9.726;2022-07-15T16:36:57;31.30;49.10
13052;DHT22;6592;47.484;9.726;2022-07-15T16:39:25;31.40;49.70
13052;DHT22;6592;47.484;9.726;2022-07-15T16:41:53;31.40;50.80
13052;DHT22;6592;47.484;9.726;2022-07-15T16:44:22;31.30;50.10
13052;DHT22;6592;47.484;9.726;2022-07-15T16:46:50;31.20;49.30
13052;DHT22;6592;47.484;9.726;2022-07-15T16:49:19;31.10;49.40
13052;DHT22;6592;47.484;9.726;2022-07-15T16:51:49;31.00;50.10
13052;DHT22;6592;47.484;9.726;2022-07-15T16:54:17;30.80;49.70
13052;DHT22;6592;47.484;9.726;2022-07-15T16:56:49;30.80;50.30
13052;DHT22;6592;47.484;9.726;2022-07-15T16:59:17;30.70;49.60
13052;DHT22;6592;47.484;9.726;2022-07-15T17:01:45;30.60;50.50
13052;DHT22;6592;47.484;9.726;2022-07-15T17:04:13;30.50;51.90
13052;DHT22;6592;47.484;9.726;2022-07-15T17:06:41;30.50;51.20
13052;DHT22;6592;47.484;9.726;2022-07-15T17:09:11;30.50;51.70
13052;DHT22;6592;47.484;9.726;2022-07-15T17:11:40;30.50;52.00
13052;DHT22;6592;47.484;9.726;2022-07-15T17:14:09;30.40;51.50
13052;DHT22;6592;47.484;9.726;2022-07-15T17:16:37;30.40;51.40
13052;DHT22;6592;47.484;9.726;2022-07-15T17:19:05;30.30;52.30
13052;DHT22;6592;47.484;9.726;2022-07-15T17:21:33;30.20;51.60
13052;DHT22;6592;47.484;9.726;2022-07-15T17:24:02;30.10;51.90
13052;DHT22;6592;47.484;9.726;2022-07-15T17:26:32;30.10;52.00
13052;DHT22;6592;47.484;9.726;2022-07-15T17:29:00;30.00;51.40
13052;DHT22;6592;47.484;9.726;2022-07-15T17:31:29;29.80;51.50
13052;DHT22;6592;47.484;9.726;2022-07-15T17:33:58;29.70;51.20
13052;DHT22;6592;47.484;9.726;2022-07-15T17:36:26;29.60;51.40
13052;DHT22;6592;47.484;9.726;2022-07-15T17:38:55;29.60;51.60
13052;DHT22;6592;47.484;9.726;2022-07-15T17:41:23;29.50;51.10
13052;DHT22;6592;47.484;9.726;2022-07-15T17:44:00;29.40;51.30
13052;DHT22;6592;47.484;9.726;2022-07-15T17:46:29;29.40;51.50
13052;DHT22;6592;47.484;9.726;2022-07-15T17:48:57;29.20;51.30
13052;DHT22;6592;47.484;9.726;2022-07-15T17:51:25;29.30;51.70
13052;DHT22;6592;47.484;9.726;2022-07-15T17:53:53;29.20;51.30
13052;DHT22;6592;47.484;9.726;2022-07-15T17:56:21;29.10;51.30
13052;DHT22;6592;47.484;9.726;2022-07-15T17:58:49;29.10;52.20
13052;DHT22;6592;47.484;9.726;2022-07-15T18:01:19;29.00;52.00
13052;DHT22;6592;47.484;9.726;2022-07-15T18:03:47;28.90;51.90
13052;DHT22;6592;47.484;9.726;2022-07-15T18:06:15;28.80;52.30
13052;DHT22;6592;47.484;9.726;2022-07-15T18:08:43;28.80;52.70
13052;DHT22;6592;47.484;9.726;2022-07-15T18:11:12;28.80;53.20
13052;DHT22;6592;47.484;9.726;2022-07-15T18:13:40;28.70;53.20
13052;DHT22;6592;47.484;9.726;2022-07-15T18:16:08;28.60;53.30
13052;DHT22;6592;47.484;9.726;2022-07-15T18:18:39;28.60;53.20
13052;DHT22;6592;47.484;9.726;2022-07-15T18:21:07;28.50;53.00
13052;DHT22;6592;47.484;9.726;2022-07-15T18:23:36;28.40;53.20
13052;DHT22;6592;47.484;9.726;2022-07-15T18:26:04;28.30;53.40
13052;DHT22;6592;47.484;9.726;2022-07-15T18:28:32;28.30;53.00
13052;DHT22;6592;47.484;9.726;2022-07-15T18:31:00;28.20;53.30
13052;DHT22;6592;47.484;9.726;2022-07-15T18:33:28;28.00;52.90
13052;DHT22;6592;47.484;9.726;2022-07-15T18:35:58;27.90;54.10
13052;DHT22;6592;47.484;9.726;2022-07-15T18:38:26;27.90;53.90
13052;DHT22;6592;47.484;9.726;2022-07-15T18:40:56;27.80;54.40
13052;DHT22;6592;47.484;9.726;2022-07-15T18:43:24;27.70;54.40
13052;DHT22;6592;47.484;9.726;2022-07-15T18:45:52;27.60;53.90
13052;DHT22;6592;47.484;9.726;2022-07-15T18:48:21;27.30;53.80